KMNN/MNN METAR and TAF weather

Enter ICAO airport designator
Station Type Date Time Source
KMNN METAR 2020/01/22 17:53 UTC NOAA

KMNN 221753Z AUTO 22009KT 10SM CLR 01/M07 A3037 RMK AO2 SLP299 T00061072 10006 21089 58003


Station Type Date Time Source
KMNN Decoded METAR 2020/01/22 17:53 UTC NOAA

MARION MUNICIPAL AIRPORT, OH, United States (KMNN) 40-37N 83-04W 301M
Jan 22, 2020 - 12:53 PM EST / 2020.01.22 1753 UTC
Wind: from the SW (220 degrees) at 10 MPH (9 KT):0
Visibility: 10 mile(s):0
Sky conditions: clear
Temperature: 33.1 F (0.6 C)
Windchill: 24 F (-4 C):1
Dew Point: 19.0 F (-7.2 C)
Relative Humidity: 55%
Pressure (altimeter): 30.37 in. Hg (1028 hPa)
Pressure tendency: 0.01 inches (0.3 hPa) lower than three hours ago
ob: KMNN 221753Z AUTO 22009KT 10SM CLR 01/M07 A3037 RMK AO2 SLP299 T00061072 10006 21089 58003
cycle: 18

Station Type Date Time Source
KMNN TAF UTC NOAA

Error!

Example: see airport list